Time;durP1;ratioP1;P1;durP2;ratioP2;P2;SDS_P1;SDS_P2;PMS_P1;PMS_P2;Temp;Humidity;BMP_temperature;BMP_pressure;BME280_temperature;BME280_humidity;BME280_pressure;Samples;Min_cycle;Max_cycle;Signal;HPM_P1;HPM_P2
2023/07/24 00:01:53;;;;;;;10.60;5.90;;;17.40;99.90;;;;;;4996075;28;20499;-82
2023/07/24 00:04:18;;;;;;;10.23;5.93;;;17.20;99.90;;;;;;5009210;28;20510;-81
2023/07/24 00:06:44;;;;;;;9.43;5.77;;;17.20;99.90;;;;;;5001277;28;20913;-81
2023/07/24 00:09:10;;;;;;;11.20;6.20;;;17.10;99.90;;;;;;5012684;28;20471;-82
2023/07/24 00:11:35;;;;;;;11.30;5.88;;;17.30;99.90;;;;;;5012092;28;20439;-82
2023/07/24 00:14:01;;;;;;;10.53;6.30;;;17.30;99.90;;;;;;5011042;28;20782;-82
2023/07/24 00:16:27;;;;;;;12.57;6.27;;;17.00;99.90;;;;;;4996166;28;20408;-82
2023/07/24 00:18:52;;;;;;;11.93;6.30;;;17.20;99.90;;;;;;4992531;28;20925;-83
2023/07/24 00:21:18;;;;;;;10.77;6.35;;;17.20;99.90;;;;;;4993563;28;20435;-83
2023/07/24 00:23:44;;;;;;;11.37;6.60;;;17.10;99.90;;;;;;4979199;28;20759;-82
2023/07/24 00:26:09;;;;;;;12.30;6.80;;;17.30;99.90;;;;;;5011855;28;20510;-82
2023/07/24 00:28:35;;;;;;;11.90;6.65;;;17.00;99.90;;;;;;5010557;28;20431;-82
2023/07/24 00:31:01;;;;;;;13.00;6.50;;;16.80;99.90;;;;;;4984133;28;20428;-82
2023/07/24 00:33:26;;;;;;;12.33;6.20;;;17.00;99.90;;;;;;5005553;28;20464;-82
2023/07/24 00:35:57;;;;;;;11.23;6.30;;;17.10;99.90;;;;;;5011913;28;20427;-82
2023/07/24 00:38:23;;;;;;;11.10;6.45;;;17.10;99.90;;;;;;4994747;28;20945;-82
2023/07/24 00:40:49;;;;;;;10.90;6.75;;;17.30;99.90;;;;;;5012572;28;20428;-82
2023/07/24 00:43:16;;;;;;;11.65;6.82;;;17.20;99.90;;;;;;4993214;28;20438;-82
2023/07/24 00:45:43;;;;;;;10.95;6.65;;;17.00;99.90;;;;;;5011562;28;20484;-82
2023/07/24 00:48:08;;;;;;;13.32;7.28;;;17.00;99.90;;;;;;4993897;28;20421;-82
2023/07/24 00:50:35;;;;;;;12.17;7.33;;;16.80;99.90;;;;;;4994707;28;20490;-82
2023/07/24 00:53:02;;;;;;;13.97;7.37;;;16.90;99.90;;;;;;5010910;28;20459;-82
2023/07/24 00:55:27;;;;;;;13.43;7.40;;;16.90;99.90;;;;;;5010465;28;20413;-81
2023/07/24 00:57:54;;;;;;;13.93;7.60;;;16.70;99.90;;;;;;4994219;28;20442;-81
2023/07/24 01:00:20;;;;;;;16.25;8.18;;;17.00;99.90;;;;;;4993334;28;20425;-81
2023/07/24 01:02:46;;;;;;;13.90;7.70;;;16.50;99.90;;;;;;5010469;28;20424;-82
2023/07/24 01:05:17;;;;;;;14.73;8.02;;;16.70;99.90;;;;;;4995935;28;20820;-81
2023/07/24 01:07:43;;;;;;;15.45;8.65;;;16.80;99.90;;;;;;4978528;28;20428;-81
2023/07/24 01:10:09;;;;;;;13.27;8.13;;;16.80;99.90;;;;;;4993791;28;20421;-81
2023/07/24 01:12:56;;;;;;;15.77;9.03;;;16.80;99.90;;;;;;4986610;28;20476;-81
2023/07/24 01:15:35;;;;;;;12.87;8.47;;;16.70;99.90;;;;;;5009438;28;20558;-81
2023/07/24 01:18:08;;;;;;;15.40;9.90;;;16.70;99.90;;;;;;5008079;28;20455;-82
2023/07/24 01:20:37;;;;;;;16.27;10.52;;;16.60;99.90;;;;;;5010126;28;20424;-82
2023/07/24 01:23:15;;;;;;;16.35;10.07;;;16.70;99.90;;;;;;4993417;28;20429;-82
2023/07/24 01:26:02;;;;;;;15.00;10.50;;;16.60;99.90;;;;;;4993856;28;20404;-82
2023/07/24 01:28:28;;;;;;;15.25;11.13;;;16.70;99.90;;;;;;5003615;28;20424;-82
2023/07/24 01:30:54;;;;;;;16.27;11.27;;;16.40;99.90;;;;;;5008615;28;20425;-82
2023/07/24 01:33:21;;;;;;;17.05;11.52;;;16.50;99.90;;;;;;4993195;28;20487;-82
2023/07/24 01:35:51;;;;;;;18.42;11.65;;;16.70;99.90;;;;;;4993554;28;20409;-82
2023/07/24 01:38:17;;;;;;;19.45;12.93;;;16.60;99.90;;;;;;4991054;28;20407;-82
2023/07/24 01:40:43;;;;;;;17.92;12.68;;;16.60;99.90;;;;;;4993699;28;20455;-82
2023/07/24 01:43:09;;;;;;;17.58;12.57;;;16.50;99.90;;;;;;5006785;28;20428;-82
2023/07/24 01:45:35;;;;;;;18.65;13.07;;;16.40;99.90;;;;;;4991450;28;20410;-82
2023/07/24 01:48:04;;;;;;;19.98;13.07;;;16.40;99.90;;;;;;5006705;28;20431;-83
2023/07/24 01:50:29;;;;;;;20.67;13.32;;;16.50;99.90;;;;;;4993476;28;21208;-82
2023/07/24 01:52:55;;;;;;;19.60;13.40;;;16.40;99.90;;;;;;4993627;28;20568;-82
2023/07/24 01:55:21;;;;;;;18.80;13.45;;;16.30;99.90;;;;;;4988647;28;20452;-82
2023/07/24 01:57:46;;;;;;;18.90;13.17;;;16.40;99.90;;;;;;5010440;28;20420;-82
2023/07/24 02:00:12;;;;;;;16.63;13.15;;;16.80;99.90;;;;;;5010850;28;20934;-82
2023/07/24 02:02:38;;;;;;;19.30;12.45;;;16.60;99.90;;;;;;5007698;28;20968;-82
2023/07/24 02:05:04;;;;;;;17.85;12.25;;;16.50;99.90;;;;;;5010536;28;20416;-82
2023/07/24 02:07:30;;;;;;;16.85;11.57;;;16.70;99.90;;;;;;5011595;28;20470;-82
2023/07/24 02:09:55;;;;;;;16.23;11.48;;;16.80;99.90;;;;;;4992545;28;20442;-82
2023/07/24 02:12:21;;;;;;;15.70;10.90;;;16.60;99.90;;;;;;4976620;28;20421;-82
2023/07/24 02:14:49;;;;;;;16.40;11.50;;;16.40;99.90;;;;;;4993683;28;20431;-81
2023/07/24 02:17:16;;;;;;;14.68;10.90;;;16.80;99.90;;;;;;4979637;28;20827;-81
2023/07/24 02:19:41;;;;;;;14.55;10.75;;;16.90;99.90;;;;;;5005585;28;20416;-81
2023/07/24 02:22:07;;;;;;;16.08;10.68;;;16.60;99.90;;;;;;5009390;28;20436;-82
2023/07/24 02:24:33;;;;;;;15.60;10.43;;;16.60;99.90;;;;;;5008924;28;20428;-82
2023/07/24 02:26:59;;;;;;;14.93;9.90;;;16.70;99.90;;;;;;5007806;28;20429;-82
2023/07/24 02:29:24;;;;;;;14.38;10.25;;;16.50;99.90;;;;;;5010104;28;20397;-82
2023/07/24 02:31:50;;;;;;;14.82;9.70;;;16.70;99.90;;;;;;5009644;28;20535;-82
2023/07/24 02:34:16;;;;;;;16.70;9.90;;;16.80;99.90;;;;;;5004839;28;20413;-81
2023/07/24 02:36:42;;;;;;;15.13;9.63;;;16.90;99.90;;;;;;5009100;28;20428;-82
2023/07/24 02:39:07;;;;;;;16.03;9.90;;;16.70;99.90;;;;;;4991573;28;20785;-82
2023/07/24 02:41:33;;;;;;;16.75;9.98;;;17.00;99.90;;;;;;4993077;28;21031;-82
2023/07/24 02:43:59;;;;;;;17.08;10.55;;;16.80;99.90;;;;;;5016304;28;20430;-82
2023/07/24 02:46:25;;;;;;;15.18;10.05;;;16.70;99.90;;;;;;5000871;28;20422;-82
2023/07/24 02:48:52;;;;;;;15.10;10.30;;;16.70;99.90;;;;;;5017068;28;20403;-83
2023/07/24 02:51:17;;;;;;;18.20;10.45;;;16.60;99.90;;;;;;5015718;28;20941;-82
2023/07/24 02:53:43;;;;;;;15.83;10.80;;;16.70;99.90;;;;;;5013681;28;20422;-82
2023/07/24 02:56:09;;;;;;;19.57;10.67;;;16.80;99.90;;;;;;5000335;28;20443;-82
2023/07/24 02:58:34;;;;;;;17.33;10.48;;;16.60;99.90;;;;;;5011007;28;20405;-82
2023/07/24 03:01:07;;;;;;;15.17;10.40;;;16.70;99.90;;;;;;5000287;28;20918;-83
2023/07/24 03:03:34;;;;;;;16.73;10.25;;;16.60;99.90;;;;;;4999819;28;20423;-82
2023/07/24 03:06:00;;;;;;;15.75;10.00;;;16.60;99.90;;;;;;5008429;28;20415;-81
2023/07/24 03:08:25;;;;;;;15.57;9.70;;;16.70;99.90;;;;;;5031361;28;20427;-82
2023/07/24 03:10:51;;;;;;;17.48;9.93;;;16.70;99.90;;;;;;5001103;28;20406;-82
2023/07/24 03:13:17;;;;;;;15.15;10.20;;;16.90;99.90;;;;;;5016626;28;20844;-82
2023/07/24 03:15:43;;;;;;;14.75;10.25;;;16.70;99.90;;;;;;5014955;28;20450;-81
2023/07/24 03:18:08;;;;;;;15.03;9.93;;;16.70;99.90;;;;;;5016640;28;20891;-82
2023/07/24 03:20:34;;;;;;;15.60;9.90;;;16.70;99.90;;;;;;5015344;28;20469;-82
2023/07/24 03:23:00;;;;;;;14.07;9.73;;;16.60;99.90;;;;;;5013013;28;20481;-82
2023/07/24 03:25:25;;;;;;;16.70;10.00;;;16.50;99.90;;;;;;4996919;28;20401;-82
2023/07/24 03:27:51;;;;;;;14.47;9.77;;;16.50;99.90;;;;;;4986648;28;20427;-81
2023/07/24 03:30:17;;;;;;;15.00;9.57;;;17.00;99.90;;;;;;4999700;28;20426;-82
2023/07/24 03:32:42;;;;;;;15.35;10.27;;;16.80;99.90;;;;;;4956912;28;20425;-82
2023/07/24 03:35:08;;;;;;;14.90;9.67;;;16.80;99.90;;;;;;4998350;28;20404;-81
2023/07/24 03:37:35;;;;;;;18.47;9.63;;;16.90;99.90;;;;;;5012808;28;20926;-82
2023/07/24 03:40:01;;;;;;;14.32;9.73;;;16.80;99.90;;;;;;5014026;28;20438;-82
2023/07/24 03:42:29;;;;;;;14.70;10.50;;;16.70;99.90;;;;;;5015486;28;20427;-81
2023/07/24 03:44:55;;;;;;;15.32;10.70;;;16.60;99.90;;;;;;4999810;28;20407;-81
2023/07/24 03:47:21;;;;;;;15.70;10.23;;;16.60;99.90;;;;;;5016187;28;20427;-82
2023/07/24 03:49:47;;;;;;;17.45;10.63;;;16.60;99.90;;;;;;5014634;28;20550;-82
2023/07/24 03:52:12;;;;;;;15.53;10.53;;;16.60;99.90;;;;;;4995672;28;21814;-81
2023/07/24 03:54:38;;;;;;;16.10;11.10;;;16.70;99.90;;;;;;4998891;28;20499;-81
2023/07/24 03:57:04;;;;;;;16.10;11.15;;;16.70;99.90;;;;;;4998263;28;20995;-82
2023/07/24 03:59:31;;;;;;;14.18;10.48;;;16.60;99.90;;;;;;5013190;28;20451;-82
2023/07/24 04:01:57;;;;;;;15.47;11.27;;;16.70;99.90;;;;;;4996711;28;20521;-82
2023/07/24 04:04:23;;;;;;;15.25;11.00;;;16.60;99.90;;;;;;4997166;28;20998;-81
2023/07/24 04:06:48;;;;;;;15.85;11.32;;;16.60;99.90;;;;;;4994929;28;20505;-84
2023/07/24 04:09:14;;;;;;;16.08;11.20;;;16.40;99.90;;;;;;5012783;28;20509;-82
2023/07/24 04:11:41;;;;;;;18.33;12.07;;;16.90;99.90;;;;;;4996485;28;20433;-81
2023/07/24 04:14:07;;;;;;;16.30;11.90;;;16.70;99.90;;;;;;4972517;28;20415;-81
2023/07/24 04:16:33;;;;;;;16.67;12.00;;;16.90;99.90;;;;;;4965270;28;20425;-80
2023/07/24 04:18:58;;;;;;;17.93;12.03;;;16.80;99.90;;;;;;4997676;28;20858;-81
2023/07/24 04:21:24;;;;;;;16.50;12.18;;;16.80;99.90;;;;;;4978464;28;20517;-81
2023/07/24 04:23:50;;;;;;;16.85;11.80;;;16.70;99.90;;;;;;4989509;28;20803;-81
2023/07/24 04:26:15;;;;;;;14.93;11.60;;;16.70;99.90;;;;;;5012359;28;20426;-81
2023/07/24 04:28:41;;;;;;;15.73;11.30;;;17.00;99.90;;;;;;5014142;28;20497;-82
2023/07/24 04:31:07;;;;;;;14.98;11.43;;;16.90;99.90;;;;;;4997424;28;20399;-82
2023/07/24 04:33:32;;;;;;;17.80;11.10;;;16.70;99.90;;;;;;5031632;28;20391;-82
2023/07/24 04:35:58;;;;;;;15.50;11.63;;;17.00;99.90;;;;;;4970529;28;20778;-82
2023/07/24 04:38:24;;;;;;;14.90;11.25;;;16.90;99.90;;;;;;4996836;28;20464;-82
2023/07/24 04:40:50;;;;;;;14.55;11.30;;;16.90;99.90;;;;;;4998759;28;20407;-82
2023/07/24 04:43:15;;;;;;;15.32;11.57;;;17.00;99.90;;;;;;4981064;28;20431;-82
2023/07/24 04:45:41;;;;;;;14.33;10.40;;;17.20;99.90;;;;;;5014502;28;20415;-81
2023/07/24 04:48:07;;;;;;;15.30;11.10;;;17.10;99.90;;;;;;4998329;28;20873;-81
2023/07/24 04:50:32;;;;;;;14.27;11.07;;;17.00;99.90;;;;;;4997380;28;20430;-81
2023/07/24 04:52:58;;;;;;;16.13;10.90;;;16.90;99.90;;;;;;4994770;28;20430;-83
2023/07/24 04:55:24;;;;;;;15.73;11.02;;;16.90;99.90;;;;;;4998199;28;20472;-82
2023/07/24 04:57:50;;;;;;;14.85;11.07;;;17.20;99.90;;;;;;5012647;28;20427;-83
2023/07/24 05:00:16;;;;;;;15.70;11.70;;;17.30;99.90;;;;;;4998193;28;20525;-82
2023/07/24 05:02:42;;;;;;;15.30;10.50;;;17.10;99.90;;;;;;5014951;28;20771;-82
2023/07/24 05:05:08;;;;;;;14.47;11.10;;;17.20;99.90;;;;;;4998846;28;20407;-83
2023/07/24 05:07:34;;;;;;;13.63;10.85;;;17.10;99.90;;;;;;4980847;28;20429;-83
2023/07/24 05:09:59;;;;;;;13.80;10.70;;;17.00;99.90;;;;;;5011796;28;20427;-82
2023/07/24 05:12:25;;;;;;;14.10;10.63;;;17.30;99.90;;;;;;5003785;28;20551;-83
2023/07/24 05:14:51;;;;;;;14.13;10.25;;;17.30;99.90;;;;;;5011627;28;20411;-83
2023/07/24 05:17:18;;;;;;;14.52;11.27;;;17.10;99.90;;;;;;4994687;28;20413;-82
2023/07/24 05:19:43;;;;;;;13.23;10.55;;;17.30;99.90;;;;;;5013242;28;20419;-82
2023/07/24 05:22:10;;;;;;;14.77;10.53;;;17.60;99.90;;;;;;4996296;28;20423;-81
2023/07/24 05:24:39;;;;;;;14.05;10.50;;;17.60;99.90;;;;;;5011996;28;20726;-82
2023/07/24 05:27:05;;;;;;;13.20;9.63;;;17.40;99.90;;;;;;5013547;28;20431;-81
2023/07/24 05:29:31;;;;;;;12.82;10.05;;;16.70;99.90;;;;;;5014076;28;20425;-81
2023/07/24 05:31:58;;;;;;;15.30;9.93;;;17.40;99.90;;;;;;5015909;28;20418;-82
2023/07/24 05:34:24;;;;;;;13.65;9.55;;;17.50;99.90;;;;;;4989494;28;21009;-81
2023/07/24 05:36:50;;;;;;;14.80;10.18;;;17.30;99.90;;;;;;4988843;28;20440;-81
2023/07/24 05:39:16;;;;;;;16.30;10.45;;;17.50;99.90;;;;;;5013212;28;20842;-83
2023/07/24 05:41:41;;;;;;;13.13;9.77;;;17.50;99.90;;;;;;5012164;28;21585;-81
2023/07/24 05:44:07;;;;;;;15.73;10.48;;;17.40;99.90;;;;;;5006184;28;20422;-81
2023/07/24 05:46:33;;;;;;;12.77;9.43;;;17.70;99.90;;;;;;5001852;28;20463;-82
2023/07/24 05:49:01;;;;;;;15.73;10.05;;;17.50;99.90;;;;;;4995178;28;20504;-81
2023/07/24 05:51:27;;;;;;;15.57;10.48;;;17.70;99.90;;;;;;5011363;28;20427;-81
2023/07/24 05:53:52;;;;;;;13.65;10.50;;;17.50;99.90;;;;;;5011909;28;20449;-80
2023/07/24 05:56:18;;;;;;;15.50;10.40;;;17.30;99.90;;;;;;4995400;28;20506;-82
2023/07/24 05:58:44;;;;;;;15.53;10.23;;;17.30;99.90;;;;;;5007066;28;20903;-82
2023/07/24 06:01:10;;;;;;;15.65;10.27;;;17.40;99.90;;;;;;5011089;28;20427;-81
2023/07/24 06:03:36;;;;;;;14.80;10.00;;;17.60;99.90;;;;;;5009982;28;20940;-81
2023/07/24 06:06:02;;;;;;;16.00;10.23;;;17.20;99.90;;;;;;4994240;28;20897;-82
2023/07/24 06:08:28;;;;;;;14.27;10.50;;;17.40;99.90;;;;;;4982475;28;20423;-82
2023/07/24 06:10:54;;;;;;;14.30;10.18;;;17.30;99.90;;;;;;5010002;28;20420;-81
2023/07/24 06:13:20;;;;;;;14.20;9.63;;;17.50;99.90;;;;;;5009881;28;20508;-81
2023/07/24 06:15:50;;;;;;;13.55;10.40;;;16.00;99.90;;;;;;5004746;28;20419;-81
2023/07/24 06:18:16;;;;;;;14.63;10.00;;;16.20;99.90;;;;;;5015156;28;20517;-82
2023/07/24 06:20:41;;;;;;;13.30;9.93;;;17.80;99.90;;;;;;5002836;28;20508;-81
2023/07/24 06:23:07;;;;;;;14.05;9.65;;;18.00;99.90;;;;;;5030868;28;20419;-81
2023/07/24 06:25:33;;;;;;;14.43;9.63;;;18.00;99.90;;;;;;5005144;28;20427;-80
2023/07/24 06:27:59;;;;;;;14.45;10.38;;;17.60;99.90;;;;;;4982694;28;20465;-81
2023/07/24 06:30:25;;;;;;;14.60;10.00;;;19.60;99.90;;;;;;4998499;28;20426;-80
2023/07/24 06:32:50;;;;;;;14.53;10.47;;;17.80;99.90;;;;;;5014100;28;20517;-80
2023/07/24 06:35:16;;;;;;;12.55;9.52;;;17.90;99.90;;;;;;4984401;28;20468;-80
2023/07/24 06:37:42;;;;;;;12.23;9.48;;;18.00;99.90;;;;;;4977985;28;20550;-79
2023/07/24 06:40:08;;;;;;;18.07;11.20;;;18.00;99.90;;;;;;4981900;28;20432;-80
2023/07/24 06:42:34;;;;;;;13.38;9.63;;;18.20;99.90;;;;;;5014442;28;20505;-80
2023/07/24 06:45:00;;;;;;;13.60;9.48;;;18.00;99.90;;;;;;5015156;28;20431;-80
2023/07/24 06:47:26;;;;;;;14.20;9.90;;;18.20;99.90;;;;;;5014020;28;20424;-81
2023/07/24 06:49:51;;;;;;;13.98;9.82;;;18.20;99.90;;;;;;4996363;28;20423;-81
2023/07/24 06:52:17;;;;;;;15.60;9.70;;;18.20;99.90;;;;;;5014491;28;20945;-80
2023/07/24 06:54:43;;;;;;;16.47;10.10;;;18.20;99.90;;;;;;5010898;28;20432;-80
2023/07/24 06:57:09;;;;;;;16.37;9.73;;;18.10;99.90;;;;;;4997075;28;20507;-80
2023/07/24 06:59:35;;;;;;;16.17;9.82;;;18.50;99.90;;;;;;4985698;28;20576;-80
2023/07/24 07:02:00;;;;;;;13.77;9.73;;;18.50;99.90;;;;;;5010266;28;20525;-80
2023/07/24 07:04:26;;;;;;;15.35;10.07;;;18.60;99.90;;;;;;4993665;28;20429;-81
2023/07/24 07:06:52;;;;;;;14.57;9.20;;;18.30;99.90;;;;;;4996821;28;20866;-81
2023/07/24 07:09:18;;;;;;;15.02;10.07;;;18.30;99.90;;;;;;4981497;28;20422;-80
2023/07/24 07:11:44;;;;;;;14.75;9.77;;;18.50;99.90;;;;;;5000342;28;20399;-80
2023/07/24 07:14:10;;;;;;;15.10;9.67;;;18.60;99.90;;;;;;4999298;28;20431;-80
2023/07/24 07:16:36;;;;;;;19.13;10.17;;;18.60;99.90;;;;;;5014273;28;20545;-81
2023/07/24 07:19:02;;;;;;;14.23;8.73;;;18.40;99.90;;;;;;4995007;28;20423;-81
2023/07/24 07:21:28;;;;;;;16.20;9.20;;;18.70;99.90;;;;;;4983168;28;20497;-82
2023/07/24 07:23:54;;;;;;;14.03;8.70;;;18.70;99.90;;;;;;5021462;28;20492;-82
2023/07/24 07:26:20;;;;;;;18.17;8.93;;;18.60;99.90;;;;;;4991160;28;20454;-81
2023/07/24 07:28:47;;;;;;;17.37;9.13;;;18.90;99.90;;;;;;5001977;28;21053;-80
2023/07/24 07:31:13;;;;;;;13.35;8.45;;;18.90;99.90;;;;;;4983858;28;20744;-81
2023/07/24 07:33:42;;;;;;;17.00;8.63;;;19.20;99.90;;;;;;4975589;28;20424;-83
2023/07/24 07:36:07;;;;;;;14.45;8.27;;;19.00;99.90;;;;;;4974310;28;20424;-81
2023/07/24 07:38:41;;;;;;;16.80;8.43;;;19.20;99.90;;;;;;4991038;28;20430;-80
2023/07/24 07:41:08;;;;;;;16.42;8.90;;;19.30;99.90;;;;;;4994273;28;20423;-81
2023/07/24 07:43:36;;;;;;;14.52;8.68;;;19.20;99.90;;;;;;5009440;28;20431;-80
2023/07/24 07:46:04;;;;;;;13.50;8.23;;;19.50;99.90;;;;;;4996574;28;20407;-82
2023/07/24 07:48:33;;;;;;;16.50;8.82;;;19.10;99.90;;;;;;4988776;28;20963;-80
2023/07/24 07:50:59;;;;;;;14.13;9.35;;;19.60;99.90;;;;;;4970651;28;20505;-80
2023/07/24 07:53:25;;;;;;;14.83;8.93;;;19.20;99.90;;;;;;5014017;28;20966;-80
2023/07/24 07:55:57;;;;;;;17.20;9.10;;;19.30;99.90;;;;;;4993570;28;20476;-80
2023/07/24 07:58:23;;;;;;;16.43;9.70;;;19.00;99.90;;;;;;4998563;28;20481;-79
2023/07/24 08:00:49;;;;;;;14.05;9.00;;;19.20;99.90;;;;;;5026184;28;20426;-82
2023/07/24 08:03:15;;;;;;;16.05;9.05;;;19.10;99.90;;;;;;4993633;28;20760;-83
2023/07/24 08:05:40;;;;;;;14.57;9.03;;;19.20;99.90;;;;;;4995018;28;20438;-84
2023/07/24 08:08:06;;;;;;;16.95;9.43;;;19.40;99.90;;;;;;5012012;28;20461;-84
2023/07/24 08:10:32;;;;;;;16.85;9.40;;;19.20;99.90;;;;;;4987594;28;20538;-84
2023/07/24 08:12:57;;;;;;;16.17;9.20;;;19.30;99.90;;;;;;5003602;28;20765;-84
2023/07/24 08:15:23;;;;;;;15.43;9.25;;;19.30;99.90;;;;;;5011616;28;20426;-84
2023/07/24 08:17:49;;;;;;;14.93;9.05;;;19.40;99.90;;;;;;5006822;28;20564;-85
2023/07/24 08:20:14;;;;;;;15.17;9.90;;;19.90;99.90;;;;;;5003668;28;20411;-84
2023/07/24 08:22:43;;;;;;;19.90;10.13;;;19.50;99.90;;;;;;4992041;28;20429;-85
2023/07/24 08:25:09;;;;;;;16.20;9.35;;;19.30;99.90;;;;;;5009847;28;20481;-84
2023/07/24 08:27:34;;;;;;;17.70;9.53;;;19.40;99.90;;;;;;4990632;28;20935;-84
2023/07/24 08:30:00;;;;;;;15.17;9.70;;;19.50;99.90;;;;;;5028902;28;20539;-84
2023/07/24 08:32:26;;;;;;;17.67;10.20;;;19.60;99.90;;;;;;5008367;28;21442;-83
2023/07/24 08:34:51;;;;;;;16.33;9.57;;;19.40;99.90;;;;;;5013511;28;20473;-83
2023/07/24 08:37:17;;;;;;;18.80;9.60;;;19.50;99.90;;;;;;4992690;28;20490;-83
2023/07/24 08:39:43;;;;;;;19.98;9.30;;;19.50;99.90;;;;;;4995406;28;20426;-84
2023/07/24 08:42:13;;;;;;;17.67;9.50;;;19.60;99.90;;;;;;5000428;28;20766;-84
2023/07/24 08:44:38;;;;;;;15.75;8.88;;;19.60;99.90;;;;;;5017166;28;20457;-83
2023/07/24 08:47:09;;;;;;;16.42;9.27;;;19.50;99.90;;;;;;4994190;28;20430;-85
2023/07/24 08:49:36;;;;;;;19.17;10.23;;;19.60;99.90;;;;;;4990077;28;20999;-84
2023/07/24 08:52:04;;;;;;;15.90;9.80;;;19.60;99.90;;;;;;5004773;28;20403;-83
2023/07/24 08:54:30;;;;;;;17.70;9.82;;;19.60;99.90;;;;;;4993955;28;20411;-84
2023/07/24 08:56:56;;;;;;;19.08;9.48;;;19.70;99.90;;;;;;4987439;28;20449;-84
2023/07/24 08:59:22;;;;;;;16.73;9.30;;;20.30;99.90;;;;;;5030359;28;20839;-83
2023/07/24 09:01:47;;;;;;;16.83;9.33;;;20.10;99.90;;;;;;5011205;28;20431;-85
2023/07/24 09:04:15;;;;;;;15.52;8.82;;;20.30;99.90;;;;;;5010861;28;20462;-84
2023/07/24 09:06:42;;;;;;;16.25;9.73;;;20.60;99.90;;;;;;5010504;28;20430;-84
2023/07/24 09:09:15;;;;;;;16.17;8.93;;;20.30;99.90;;;;;;5008482;28;20415;-82
2023/07/24 09:11:52;;;;;;;17.30;8.93;;;20.50;99.90;;;;;;4998044;28;20410;-83
2023/07/24 09:14:25;;;;;;;13.90;8.25;;;20.40;99.90;;;;;;4991472;28;20435;-84
2023/07/24 09:17:02;;;;;;;15.52;7.78;;;20.40;99.90;;;;;;4979407;28;20423;-83
2023/07/24 09:19:30;;;;;;;13.60;7.75;;;20.30;99.90;;;;;;4980800;28;20918;-83
2023/07/24 09:21:56;;;;;;;14.30;8.27;;;20.40;99.90;;;;;;5009156;28;20923;-83
2023/07/24 09:24:22;;;;;;;14.15;8.30;;;20.70;99.90;;;;;;4976116;28;20410;-83
2023/07/24 09:26:53;;;;;;;14.95;8.68;;;20.70;99.90;;;;;;4962813;28;21048;-84
2023/07/24 09:29:31;;;;;;;16.38;9.30;;;20.80;99.90;;;;;;4992154;28;20896;-84
2023/07/24 09:31:58;;;;;;;12.97;8.30;;;20.60;99.90;;;;;;5010947;28;20466;-84
2023/07/24 09:34:25;;;;;;;14.18;8.35;;;20.50;99.90;;;;;;4983812;28;20460;-82
2023/07/24 09:36:51;;;;;;;13.60;8.10;;;20.40;99.90;;;;;;4974236;28;20494;-82
2023/07/24 09:39:27;;;;;;;13.77;7.50;;;20.40;99.90;;;;;;4993699;28;20428;-83
2023/07/24 09:42:05;;;;;;;12.93;8.20;;;20.40;99.90;;;;;;4987392;28;20495;-83
2023/07/24 09:44:32;;;;;;;14.52;7.78;;;21.10;99.90;;;;;;4969431;28;20473;-84
2023/07/24 09:47:01;;;;;;;13.53;7.80;;;20.80;99.90;;;;;;4989431;28;20459;-82
2023/07/24 09:49:27;;;;;;;12.30;7.50;;;21.10;99.90;;;;;;5003624;28;20427;-83
2023/07/24 09:52:00;;;;;;;14.23;7.53;;;21.00;99.90;;;;;;4993594;28;20428;-83
2023/07/24 09:54:32;;;;;;;15.43;7.82;;;21.80;99.90;;;;;;4988919;28;20420;-83
2023/07/24 09:56:59;;;;;;;14.20;8.97;;;22.10;99.90;;;;;;4998985;28;20502;-83
2023/07/24 09:59:27;;;;;;;16.87;8.13;;;22.00;99.90;;;;;;5003445;28;20468;-83
2023/07/24 10:01:53;;;;;;;12.30;7.15;;;22.30;99.90;;;;;;4996674;28;20437;-84
2023/07/24 10:04:20;;;;;;;13.17;7.17;;;22.20;99.90;;;;;;4961273;28;20559;-83
2023/07/24 10:06:47;;;;;;;15.02;7.43;;;22.40;99.90;;;;;;5001986;28;20510;-84
2023/07/24 10:09:19;;;;;;;14.13;7.80;;;22.40;99.90;;;;;;4992088;28;20920;-83
2023/07/24 10:11:45;;;;;;;13.50;7.90;;;22.60;99.90;;;;;;4985428;28;20424;-83
2023/07/24 10:14:11;;;;;;;13.35;7.88;;;22.60;99.90;;;;;;4972304;28;20519;-83
2023/07/24 10:16:37;;;;;;;14.77;7.93;;;22.60;99.90;;;;;;4971188;28;20439;-83
2023/07/24 10:19:13;;;;;;;10.27;6.50;;;22.50;99.90;;;;;;4976262;28;20432;-83
2023/07/24 10:21:46;;;;;;;13.48;6.78;;;22.70;99.90;;;;;;5002868;28;20980;-84
2023/07/24 10:24:12;;;;;;;10.50;6.70;;;22.50;99.90;;;;;;5007757;28;20507;-83
2023/07/24 10:26:37;;;;;;;8.93;6.20;;;22.70;99.90;;;;;;4973040;28;20578;-83
2023/07/24 10:29:15;;;;;;;12.35;7.03;;;22.90;99.90;;;;;;4987800;28;20430;-82
2023/07/24 10:35:10;;;;;;;9.95;5.80;;;23.00;99.90;;;;;;4975544;28;20534;-83
2023/07/24 10:38:01;;;;;;;10.15;5.53;;;22.70;99.90;;;;;;4985629;28;20470;-83
2023/07/24 10:40:35;;;;;;;8.50;5.65;;;23.10;99.90;;;;;;4991089;28;20420;-82
2023/07/24 10:43:08;;;;;;;10.00;5.60;;;23.40;99.90;;;;;;4999510;28;20490;-83
2023/07/24 10:45:48;;;;;;;10.00;6.60;;;22.90;99.90;;;;;;4993480;28;20890;-83
2023/07/24 10:48:54;;;;;;;13.55;6.80;;;22.90;99.90;;;;;;5028947;28;20443;-83
2023/07/24 10:51:24;;;;;;;12.45;7.53;;;23.00;99.90;;;;;;4958736;28;20425;-82
2023/07/24 10:53:53;;;;;;;9.50;7.30;;;22.90;99.90;;;;;;4992799;28;20474;-82
2023/07/24 10:56:22;;;;;;;9.98;6.32;;;22.90;99.90;;;;;;5002421;28;20430;-81
2023/07/24 10:58:49;;;;;;;11.63;6.85;;;23.10;99.90;;;;;;4999543;28;20418;-82
2023/07/24 11:01:42;;;;;;;10.55;6.90;;;23.40;99.90;;;;;;4972341;28;20432;-81
2023/07/24 11:04:18;;;;;;;12.07;6.78;;;23.40;99.90;;;;;;4977446;28;20496;-81
2023/07/24 11:07:20;;;;;;;11.25;6.72;;;24.20;99.90;;;;;;5012963;28;20448;-80
2023/07/24 11:09:54;;;;;;;9.48;6.85;;;25.10;99.90;;;;;;5013392;28;20473;-82
2023/07/24 11:12:36;;;;;;;10.13;6.43;;;23.10;99.90;;;;;;4969051;28;20409;-81
2023/07/24 11:15:52;;;;;;;9.10;5.67;;;23.40;99.90;;;;;;4976449;28;20434;-81
2023/07/24 11:18:29;;;;;;;9.95;6.38;;;22.90;99.90;;;;;;4962770;28;20422;-82
2023/07/24 11:20:57;;;;;;;9.82;6.28;;;22.90;99.90;;;;;;4955159;28;20430;-82
2023/07/24 11:23:24;;;;;;;10.32;6.03;;;22.80;99.90;;;;;;4957336;28;20436;-81
2023/07/24 11:26:00;;;;;;;9.10;5.80;;;23.20;99.90;;;;;;4953230;28;20440;-82
2023/07/24 11:28:40;;;;;;;8.97;5.80;;;23.90;99.90;;;;;;4928878;29;20439;-83
2023/07/24 11:31:19;;;;;;;11.05;6.32;;;22.90;99.90;;;;;;4914115;29;20916;-83
2023/07/24 11:33:47;;;;;;;9.05;5.93;;;22.80;99.90;;;;;;4917320;29;20511;-81
2023/07/24 11:36:13;;;;;;;9.20;5.88;;;25.50;99.90;;;;;;4947079;28;20946;-82
2023/07/24 11:38:48;;;;;;;9.15;5.45;;;23.00;99.90;;;;;;4914937;29;20781;-82
2023/07/24 11:41:16;;;;;;;7.47;5.20;;;23.40;99.90;;;;;;4923052;29;20433;-83
2023/07/24 11:43:49;;;;;;;10.13;5.75;;;23.20;99.90;;;;;;4930309;28;20440;-83
2023/07/24 11:46:25;;;;;;;8.90;6.00;;;23.30;99.90;;;;;;4952193;28;20509;-82
2023/07/24 11:48:53;;;;;;;9.95;6.28;;;23.40;99.90;;;;;;4966293;28;20435;-83
2023/07/24 11:51:19;;;;;;;10.88;6.75;;;23.40;99.90;;;;;;4940915;28;20459;-82
2023/07/24 11:53:45;;;;;;;8.00;5.70;;;23.10;99.90;;;;;;4944915;28;20446;-83
2023/07/24 11:56:15;;;;;;;11.05;5.63;;;22.60;99.90;;;;;;4937258;28;21030;-83
2023/07/24 11:58:41;;;;;;;11.98;6.32;;;22.50;99.90;;;;;;4954691;28;20422;-82
2023/07/24 12:01:07;;;;;;;11.40;7.03;;;22.50;99.90;;;;;;5002997;28;20943;-82
2023/07/24 12:03:33;;;;;;;12.43;6.30;;;22.30;99.90;;;;;;4985060;28;20575;-82
2023/07/24 12:05:59;;;;;;;10.80;6.70;;;22.30;99.90;;;;;;5005255;28;20428;-82
2023/07/24 12:08:33;;;;;;;9.25;6.15;;;22.50;99.90;;;;;;5004703;28;20435;-82
2023/07/24 12:10:59;;;;;;;9.52;6.60;;;22.50;99.90;;;;;;5005563;28;20446;-82
2023/07/24 12:13:24;;;;;;;9.18;6.78;;;22.30;99.90;;;;;;4989602;28;20457;-83
2023/07/24 12:15:50;;;;;;;10.10;7.35;;;22.00;99.90;;;;;;4973688;28;20932;-82
2023/07/24 12:18:16;;;;;;;10.77;7.10;;;22.00;99.90;;;;;;4990745;28;20444;-82
2023/07/24 12:20:42;;;;;;;10.40;7.25;;;21.60;99.90;;;;;;5007110;28;20444;-82
2023/07/24 12:23:08;;;;;;;10.20;6.33;;;21.20;99.90;;;;;;4984984;28;20439;-81
2023/07/24 12:25:34;;;;;;;9.47;6.40;;;20.90;99.90;;;;;;4991046;28;20430;-83
2023/07/24 12:28:00;;;;;;;9.40;6.63;;;20.40;99.90;;;;;;4982084;28;20439;-81
2023/07/24 12:30:26;;;;;;;8.55;5.78;;;20.30;99.90;;;;;;4997397;28;20407;-82
2023/07/24 12:32:53;;;;;;;7.85;6.40;;;20.50;99.90;;;;;;4979217;28;21434;-82
2023/07/24 12:35:20;;;;;;;10.33;6.87;;;20.20;99.90;;;;;;5026423;28;20494;-83
2023/07/24 12:37:46;;;;;;;14.35;6.47;;;19.60;99.90;;;;;;4975321;28;20432;-83
2023/07/24 12:40:12;;;;;;;8.50;4.57;;;19.30;99.90;;;;;;5008495;28;20424;-82